Αναφορές METAR Αεροδρομίων

 

LGTS - THESSALONIKI - GREECE
Ενημερώθηκε: 21/10/2019 05:50
Αραιές Νεφώσεις
Αραιές Νεφώσεις
 Ανεμος από ΑΝΑ
Ανεμος: ΑΝΑ 9 km/h
Θερμοκρασία: 13°C
Σημ. Δρόσου: 12°C
Υγρασία: 94%
Βαρόμετρο: 1023 hPa
Clouds: Αραιές Νεφώσεις
Visibility: 9 km
Cloud details: Αραιές Νεφώσεις 244 m
2019/10/21 02:50 LGTS 210250Z 11005KT 9000 FEW008 13/12 Q1023 NOSIG
LGLR - LARTISA - GREECE
Ενημερώθηκε: 21/10/2019 04:50
NOT Current
Μερικώς νεφελώδης
Μερικώς νεφελώδης
 Ανεμος από calm
Ανεμος: Απνοια
Θερμοκρασία: 14°C
Σημ. Δρόσου: 13°C
Υγρασία: 94%
Βαρόμετρο: 1022 hPa
Clouds: Μερικώς νεφελώδης
Visibility: 6 km
2019/10/21 01:50 LGLR 210150Z 00000KT 6000 NSC 14/13 Q1022 WHT
 
LGKZ - KOZANI - GREECE
Ενημερώθηκε: 21/10/2019 05:50

 Ανεμος από Β
Ανεμος: Β 7 km/h
Θερμοκρασία: 12°C
Σημ. Δρόσου: 11°C
Υγρασία: 94%
Βαρόμετρο: 1024 hPa
2019/10/21 02:50 LGKZ 210250Z AUTO 35004KT //// // ////// 12/11 Q1024 RE//
LGKV - KAVALA - GREECE
Ενημερώθηκε: 21/10/2019 05:50
Μερικώς νεφελώδης
Μερικώς νεφελώδης
 Ανεμος από calm
Ανεμος: Απνοια
Θερμοκρασία: 13°C
Σημ. Δρόσου: 13°C
Υγρασία: 100%
Βαρόμετρο: 1021 hPa
Clouds: Μερικώς νεφελώδης
Visibility: 8 km
2019/10/21 02:50 LGKV 210250Z 00000KT 8000 NSC 13/13 Q1021
 
LGIO - IOANNINA - GREECE
Ενημερώθηκε: 20/10/2019 21:50
NOT Current
Αίθριος
Αίθριος
 Ανεμος από calm
Ανεμος: Απνοια
Θερμοκρασία: 13°C
Σημ. Δρόσου: 12°C
Υγρασία: 94%
Βαρόμετρο: 1022 hPa
Περίληψη: Αίθριος
Visibility: greater than 10 km
2019/10/20 18:50 LGIO 201850Z 00000KT CAVOK 13/12 Q1022
LGBL - BOLOS - GREECE
Ενημερώθηκε: 21/10/2019 05:50
Μερικώς νεφελώδης
Μερικώς νεφελώδης
 Ανεμος από ΔΒΔ
Ανεμος: ΔΒΔ 7 km/h
Θερμοκρασία: 14°C
Σημ. Δρόσου: 13°C
Υγρασία: 94%
Βαρόμετρο: 1022 hPa
Clouds: Μερικώς νεφελώδης
Visibility: 8 km
2019/10/21 02:50 LGBL 210250Z 29004KT 8000 NSC 14/13 Q1022
 
LGMT - MITILINI - GREECE
Ενημερώθηκε: 21/10/2019 05:50
Αίθριος
Αίθριος
 Ανεμος από calm
Ανεμος: Απνοια
Θερμοκρασία: 16°C
Σημ. Δρόσου: 13°C
Υγρασία: 83%
Βαρόμετρο: 1020 hPa
Περίληψη: Αίθριος
Visibility: greater than 10 km
2019/10/21 02:50 LGMT 210250Z 00000KT CAVOK 16/13 Q1020
LGAV - ATHENS - GREECE
Ενημερώθηκε: 21/10/2019 05:50
Αίθριος
Αίθριος
 Ανεμος από varies
Ανεμος: varies 4 km/h
Θερμοκρασία: 13°C
Σημ. Δρόσου: 12°C
Υγρασία: 94%
Βαρόμετρο: 1020 hPa
Περίληψη: Αίθριος
Visibility: greater than 10 km
2019/10/21 02:50 LGAV 210250Z VRB02KT CAVOK 13/12 Q1020 NOSIG
 
LGRP - RODOS - GREECE
Ενημερώθηκε: 21/10/2019 05:50
Μερικώς νεφελώδης
Μερικώς νεφελώδης
 Ανεμος από varies
Ανεμος: varies 0 km/h
Θερμοκρασία: 22°C
Σημ. Δρόσου: 19°C
Υγρασία: 83%
Βαρόμετρο: 1015 hPa
Clouds: Μερικώς νεφελώδης
Visibility: 7 km
2019/10/21 02:50 LGRP 210250Z /////KT 7000 NSC 22/19 Q1015 NOSIG
LGIR - HRAKLIO/KRITI - GREECE
Ενημερώθηκε: 21/10/2019 05:50
Αραιές Νεφώσεις
Αραιές Νεφώσεις
 Ανεμος από Ν
Ανεμος: Ν 7 km/h
Θερμοκρασία: 17°C
Σημ. Δρόσου: 16°C
Υγρασία: 94%
Βαρόμετρο: 1018 hPa
Clouds: Αραιές Νεφώσεις
Visibility: 10 km
Cloud details: Αραιές Νεφώσεις 762 m
2019/10/21 02:50 LGIR 210250Z 19004KT 9999 FEW025 17/16 Q1018 NOSIG
 
LGMK - MIKONOS - GREECE
Ενημερώθηκε: 21/10/2019 05:50
Αραιές Νεφώσεις
Αραιές Νεφώσεις
 Ανεμος από Β
Ανεμος: Β 31 km/h
Θερμοκρασία: 19°C
Σημ. Δρόσου: 17°C
Υγρασία: 88%
Βαρόμετρο: 1018 hPa
Clouds: Αραιές Νεφώσεις
Visibility: 8 km
Cloud details: Αραιές Νεφώσεις 305 m
2019/10/21 02:50 LGMK 210250Z 36017KT 8000 FEW010 19/17 Q1018
LGKR - KERKIRA - GREECE
Ενημερώθηκε: 21/10/2019 05:50
Αίθριος
Αίθριος
 Ανεμος από calm
Ανεμος: Απνοια
Θερμοκρασία: 16°C
Σημ. Δρόσου: 15°C
Υγρασία: 94%
Βαρόμετρο: 1021 hPa
Περίληψη: Αίθριος
Visibility: greater than 10 km
2019/10/21 02:50 LGKR 210250Z 00000KT CAVOK 16/15 Q1021 NOSIG